Time;durP1;ratioP1;P1;durP2;ratioP2;P2;SDS_P1;SDS_P2;PMS_P1;PMS_P2;Temp;Humidity;BMP_temperature;BMP_pressure;BME280_temperature;BME280_humidity;BME280_pressure;Samples;Min_cycle;Max_cycle;Signal;HPM_P1;HPM_P2
2021/04/17 00:01:13;;;;;;;9.43;6.10;;;10.20;56.00;;;;;;5095320;28;20484;-67
2021/04/17 00:03:39;;;;;;;6.70;5.43;;;10.20;56.10;;;;;;5095282;28;20459;-67
2021/04/17 00:06:06;;;;;;;10.70;5.90;;;10.10;56.10;;;;;;5095135;28;20518;-67
2021/04/17 00:08:32;;;;;;;8.50;5.93;;;10.10;56.10;;;;;;5095131;28;20506;-67
2021/04/17 00:10:59;;;;;;;8.00;5.70;;;10.10;56.00;;;;;;5094764;28;20472;-67
2021/04/17 00:13:26;;;;;;;6.10;5.23;;;10.10;55.90;;;;;;5095120;28;20440;-67
2021/04/17 00:15:53;;;;;;;8.50;6.13;;;10.00;55.80;;;;;;5094948;28;20466;-67
2021/04/17 00:18:20;;;;;;;6.20;5.53;;;10.00;55.80;;;;;;5094957;28;20497;-67
2021/04/17 00:20:46;;;;;;;8.73;5.93;;;10.00;55.90;;;;;;5095794;28;20431;-67
2021/04/17 00:23:12;;;;;;;6.20;5.50;;;10.00;55.90;;;;;;5094911;28;20447;-67
2021/04/17 00:25:39;;;;;;;7.93;6.33;;;10.00;56.00;;;;;;5094575;28;20449;-67
2021/04/17 00:28:06;;;;;;;8.80;6.67;;;10.00;56.00;;;;;;5094854;28;20439;-67
2021/04/17 00:30:32;;;;;;;10.47;6.20;;;10.00;56.00;;;;;;5094394;28;20844;-67
2021/04/17 00:32:58;;;;;;;9.27;6.47;;;10.00;56.40;;;;;;5094753;28;20448;-67
2021/04/17 00:35:24;;;;;;;10.13;5.53;;;10.00;56.20;;;;;;5094603;28;20472;-67
2021/04/17 00:37:51;;;;;;;7.97;5.77;;;10.00;56.10;;;;;;5094643;28;20470;-67
2021/04/17 00:40:18;;;;;;;8.87;5.90;;;10.00;56.10;;;;;;5094615;28;20443;-67
2021/04/17 00:42:44;;;;;;;7.97;5.60;;;9.90;57.00;;;;;;5093894;28;21005;-67
2021/04/17 00:45:12;;;;;;;7.20;6.00;;;9.90;57.00;;;;;;5093820;28;20468;-67
2021/04/17 00:47:38;;;;;;;12.03;5.97;;;9.90;57.10;;;;;;5094406;28;20439;-67
2021/04/17 00:50:06;;;;;;;8.30;6.63;;;9.80;56.80;;;;;;5094337;28;20486;-67
2021/04/17 00:52:33;;;;;;;9.87;6.10;;;9.80;56.90;;;;;;5094370;28;20444;-67
2021/04/17 00:55:00;;;;;;;7.50;6.57;;;9.80;56.80;;;;;;5093779;28;20961;-67
2021/04/17 00:57:26;;;;;;;6.90;6.20;;;9.80;57.00;;;;;;5094313;28;20436;-67
2021/04/17 00:59:52;;;;;;;7.97;6.20;;;9.70;57.10;;;;;;5094192;28;20451;-67
2021/04/17 01:02:26;;;;;;;7.13;5.77;;;9.70;57.20;;;;;;5094276;28;20461;-67
2021/04/17 01:04:53;;;;;;;11.63;5.70;;;9.70;57.30;;;;;;5094111;28;20790;-67
2021/04/17 01:07:24;;;;;;;7.07;6.10;;;9.60;57.10;;;;;;5094093;28;20450;-67
2021/04/17 01:09:58;;;;;;;7.30;5.77;;;9.60;57.00;;;;;;5093726;28;21038;-66
2021/04/17 01:12:29;;;;;;;6.60;5.90;;;9.60;57.10;;;;;;5094083;28;20443;-66
2021/04/17 01:14:57;;;;;;;10.00;6.67;;;9.50;57.10;;;;;;5093944;28;20424;-66
2021/04/17 01:17:26;;;;;;;10.47;6.20;;;9.50;57.20;;;;;;5093992;28;20452;-66
2021/04/17 01:20:04;;;;;;;7.93;5.90;;;9.50;57.40;;;;;;5093945;28;20493;-66
2021/04/17 01:22:32;;;;;;;5.70;5.20;;;9.40;57.50;;;;;;5093929;28;20820;-66
2021/04/17 01:25:04;;;;;;;6.30;5.40;;;9.40;57.30;;;;;;5093463;28;20446;-66
2021/04/17 01:27:31;;;;;;;10.93;6.60;;;9.40;57.50;;;;;;5093826;28;20438;-66
2021/04/17 01:29:59;;;;;;;8.80;6.10;;;9.30;57.50;;;;;;5093712;28;20847;-66
2021/04/17 01:32:28;;;;;;;7.00;5.70;;;9.30;57.50;;;;;;5093742;28;20460;-67
2021/04/17 01:34:55;;;;;;;8.47;6.30;;;9.20;57.80;;;;;;5093660;28;20451;-66
2021/04/17 01:37:45;;;;;;;6.80;6.13;;;9.20;58.00;;;;;;5093642;28;20465;-66
2021/04/17 01:40:13;;;;;;;7.70;5.87;;;9.20;58.10;;;;;;5093382;28;20427;-66
2021/04/17 01:42:41;;;;;;;9.20;6.47;;;9.20;58.20;;;;;;5093619;28;20500;-66
2021/04/17 01:45:08;;;;;;;7.80;6.40;;;9.10;58.30;;;;;;5093191;28;21005;-66
2021/04/17 01:47:37;;;;;;;9.27;6.07;;;9.10;58.40;;;;;;5093592;28;20459;-66
2021/04/17 01:50:05;;;;;;;10.93;7.43;;;9.10;58.50;;;;;;5093516;28;20480;-66
2021/04/17 01:52:33;;;;;;;8.83;6.03;;;9.10;58.50;;;;;;5093513;28;20808;-66
2021/04/17 01:55:01;;;;;;;8.80;5.37;;;9.10;58.60;;;;;;5094436;28;20815;-66
2021/04/17 01:57:28;;;;;;;9.00;6.60;;;9.10;58.60;;;;;;5097802;28;20796;-66
2021/04/17 01:59:56;;;;;;;9.03;6.77;;;9.00;58.40;;;;;;5097398;28;20441;-66
2021/04/17 02:02:22;;;;;;;11.53;6.43;;;9.00;58.30;;;;;;5097285;28;20498;-66
2021/04/17 02:04:48;;;;;;;9.73;6.40;;;9.00;58.50;;;;;;5097540;28;20439;-66
2021/04/17 02:07:15;;;;;;;8.27;6.57;;;8.90;58.50;;;;;;5097516;28;20564;-66
2021/04/17 02:09:41;;;;;;;7.33;6.53;;;8.90;58.40;;;;;;5097092;28;20465;-66
2021/04/17 02:12:08;;;;;;;9.57;7.00;;;8.80;58.30;;;;;;5097171;28;20944;-66
2021/04/17 02:14:34;;;;;;;11.40;7.40;;;8.80;58.40;;;;;;5097421;28;20768;-66
2021/04/17 02:17:09;;;;;;;12.70;7.30;;;8.70;58.60;;;;;;5097033;28;20971;-66
2021/04/17 02:19:39;;;;;;;9.30;7.10;;;8.70;58.80;;;;;;5097352;28;20432;-66
2021/04/17 02:22:07;;;;;;;8.67;7.10;;;8.70;58.90;;;;;;5096998;28;20896;-66
2021/04/17 02:24:34;;;;;;;9.30;6.33;;;8.60;59.00;;;;;;5097228;28;20447;-66
2021/04/17 02:27:01;;;;;;;7.37;6.47;;;8.60;59.00;;;;;;5096798;28;21014;-66
2021/04/17 02:29:27;;;;;;;7.57;6.70;;;8.60;59.00;;;;;;5096759;28;20450;-66
2021/04/17 02:31:53;;;;;;;11.03;5.90;;;8.60;59.10;;;;;;5096712;28;20471;-66
2021/04/17 02:34:21;;;;;;;9.00;6.83;;;8.60;59.30;;;;;;5096994;28;20445;-66
2021/04/17 02:36:47;;;;;;;7.07;5.83;;;8.50;59.20;;;;;;5096883;28;20472;-66
2021/04/17 02:39:13;;;;;;;7.40;6.23;;;8.50;58.80;;;;;;5096632;28;20951;-66
2021/04/17 02:41:40;;;;;;;10.00;6.40;;;8.50;58.80;;;;;;5096887;28;20843;-66
2021/04/17 02:44:06;;;;;;;6.97;6.27;;;8.40;58.80;;;;;;5097697;28;20806;-66
2021/04/17 02:46:33;;;;;;;10.80;6.80;;;8.30;58.90;;;;;;5096761;28;20467;-66
2021/04/17 02:49:00;;;;;;;8.50;7.43;;;8.30;59.10;;;;;;5096731;28;20449;-66
2021/04/17 02:51:27;;;;;;;7.37;6.30;;;8.30;59.30;;;;;;5096627;28;20537;-66
2021/04/17 02:53:53;;;;;;;7.30;5.57;;;8.30;59.50;;;;;;5096622;28;20447;-66
2021/04/17 02:56:20;;;;;;;8.10;6.70;;;8.30;59.50;;;;;;5096221;28;20478;-66
2021/04/17 02:58:46;;;;;;;9.80;6.40;;;8.20;59.40;;;;;;5096529;28;20444;-66
2021/04/17 03:01:13;;;;;;;8.33;5.83;;;8.20;59.40;;;;;;5096521;28;20443;-66
2021/04/17 03:03:39;;;;;;;9.57;6.47;;;8.10;59.20;;;;;;5096134;28;20956;-66
2021/04/17 03:06:06;;;;;;;10.13;6.30;;;8.10;59.30;;;;;;5095580;28;20463;-66
2021/04/17 03:08:33;;;;;;;10.27;6.80;;;8.10;59.50;;;;;;5096006;28;20444;-66
2021/04/17 03:10:59;;;;;;;8.13;5.83;;;8.00;59.70;;;;;;5096275;28;20524;-66
2021/04/17 03:13:26;;;;;;;8.07;6.20;;;8.00;59.70;;;;;;5095968;28;20968;-66
2021/04/17 03:15:52;;;;;;;7.97;5.60;;;8.00;59.80;;;;;;5096205;28;20476;-66
2021/04/17 03:18:19;;;;;;;7.90;5.97;;;7.90;59.60;;;;;;5096182;28;20495;-66
2021/04/17 03:20:45;;;;;;;6.63;5.93;;;7.80;59.50;;;;;;5096140;28;20446;-66
2021/04/17 03:23:11;;;;;;;7.37;6.17;;;7.80;59.60;;;;;;5096138;28;20443;-66
2021/04/17 03:25:38;;;;;;;6.83;6.10;;;7.80;59.70;;;;;;5095998;28;20475;-66
2021/04/17 03:28:05;;;;;;;5.83;4.63;;;7.70;59.70;;;;;;5095978;28;20443;-66
2021/04/17 03:30:31;;;;;;;6.40;5.00;;;7.60;59.60;;;;;;5095852;28;20472;-66
2021/04/17 03:32:59;;;;;;;8.60;6.13;;;7.60;59.60;;;;;;5096029;28;20454;-66
2021/04/17 03:35:27;;;;;;;6.90;5.03;;;7.50;59.70;;;;;;5095423;28;20464;-66
2021/04/17 03:37:53;;;;;;;7.10;5.47;;;7.50;59.90;;;;;;5095770;28;20448;-66
2021/04/17 03:40:20;;;;;;;7.23;5.73;;;7.40;59.90;;;;;;5095757;28;20436;-66
2021/04/17 03:42:48;;;;;;;8.03;5.47;;;7.30;60.10;;;;;;5095351;28;20852;-66
2021/04/17 03:45:16;;;;;;;6.63;5.20;;;7.30;60.40;;;;;;5095605;28;20479;-66
2021/04/17 03:47:42;;;;;;;8.60;5.70;;;7.30;60.70;;;;;;5095623;28;20794;-66
2021/04/17 03:50:10;;;;;;;7.20;5.97;;;7.30;61.00;;;;;;5095475;28;20476;-66
2021/04/17 03:52:36;;;;;;;7.60;5.43;;;7.30;61.30;;;;;;5095525;28;20447;-66
2021/04/17 03:55:04;;;;;;;6.77;5.10;;;7.30;61.60;;;;;;5095212;28;20450;-66
2021/04/17 03:57:30;;;;;;;9.00;6.10;;;7.30;61.80;;;;;;5095100;28;20794;-66
2021/04/17 03:59:57;;;;;;;5.90;5.30;;;7.30;61.90;;;;;;5095060;28;20940;-66
2021/04/17 04:02:23;;;;;;;8.20;5.30;;;7.30;62.10;;;;;;5095024;28;20459;-66
2021/04/17 04:04:49;;;;;;;6.90;4.60;;;7.30;62.20;;;;;;5095234;28;20459;-66
2021/04/17 04:07:16;;;;;;;8.03;4.90;;;7.30;62.90;;;;;;5095231;28;20561;-66
2021/04/17 04:09:42;;;;;;;12.20;5.93;;;7.20;62.10;;;;;;5095200;28;20440;-66
2021/04/17 04:12:09;;;;;;;6.40;4.90;;;7.20;62.30;;;;;;5095190;28;20538;-66
2021/04/17 04:14:35;;;;;;;7.67;5.33;;;7.20;62.40;;;;;;5095115;28;20452;-66
2021/04/17 04:17:03;;;;;;;9.00;5.30;;;7.20;62.40;;;;;;5094974;28;20463;-66
2021/04/17 04:19:29;;;;;;;10.13;5.87;;;7.20;62.60;;;;;;5094815;28;20542;-66
2021/04/17 04:21:55;;;;;;;5.60;4.93;;;7.20;62.80;;;;;;5095010;28;20846;-66
2021/04/17 04:24:21;;;;;;;6.60;5.30;;;7.10;62.70;;;;;;5094956;28;20454;-66
2021/04/17 04:26:48;;;;;;;7.13;5.77;;;7.10;63.40;;;;;;5094832;28;20464;-66
2021/04/17 04:29:14;;;;;;;8.57;5.40;;;7.10;63.00;;;;;;5094520;28;20968;-66
2021/04/17 04:31:41;;;;;;;8.47;5.00;;;7.10;63.10;;;;;;5094742;28;20475;-66
2021/04/17 04:34:08;;;;;;;9.17;5.30;;;7.10;63.10;;;;;;5094722;28;20451;-66
2021/04/17 04:36:34;;;;;;;6.20;5.03;;;7.10;63.10;;;;;;5094609;28;20459;-66
2021/04/17 04:39:00;;;;;;;5.73;5.20;;;7.00;62.30;;;;;;5094620;28;20447;-66
2021/04/17 04:41:27;;;;;;;6.23;5.50;;;7.00;62.20;;;;;;5094581;28;20444;-66
2021/04/17 04:43:53;;;;;;;10.53;5.50;;;7.00;62.70;;;;;;5094555;28;20443;-66
2021/04/17 04:46:19;;;;;;;7.83;5.70;;;6.90;62.30;;;;;;5094152;28;21003;-66
2021/04/17 04:48:45;;;;;;;5.40;4.50;;;6.90;62.60;;;;;;5094439;28;20444;-66
2021/04/17 04:51:12;;;;;;;8.67;4.97;;;6.90;62.80;;;;;;5094301;28;20486;-66
2021/04/17 04:53:39;;;;;;;7.93;5.97;;;6.90;63.00;;;;;;5094342;28;20497;-66
2021/04/17 04:56:06;;;;;;;7.20;4.80;;;6.90;63.10;;;;;;5093865;28;21068;-66
2021/04/17 04:58:33;;;;;;;7.33;4.60;;;6.90;63.70;;;;;;5094303;28;20501;-66
2021/04/17 05:00:59;;;;;;;7.40;5.10;;;6.90;63.40;;;;;;5094212;28;20497;-66
2021/04/17 05:03:25;;;;;;;8.50;7.70;;;6.90;63.30;;;;;;5094983;28;20443;-66
2021/04/17 05:05:52;;;;;;;6.33;4.97;;;6.90;63.70;;;;;;5094119;28;20459;-66
2021/04/17 05:08:19;;;;;;;8.07;4.80;;;6.90;63.80;;;;;;5094100;28;20436;-66
2021/04/17 05:10:45;;;;;;;6.00;4.90;;;6.90;64.10;;;;;;5093918;28;20482;-66
2021/04/17 05:13:12;;;;;;;11.30;4.80;;;6.90;64.20;;;;;;5094586;28;20801;-66
2021/04/17 05:15:38;;;;;;;6.73;5.13;;;6.90;64.30;;;;;;5093920;28;20834;-66
2021/04/17 05:18:05;;;;;;;6.80;5.43;;;6.90;64.50;;;;;;5093976;28;20439;-66
2021/04/17 05:20:31;;;;;;;7.67;5.50;;;6.90;65.30;;;;;;5093939;28;20450;-66
2021/04/17 05:22:57;;;;;;;8.40;5.50;;;7.00;64.90;;;;;;5093888;28;20448;-66
2021/04/17 05:25:24;;;;;;;8.57;5.43;;;7.00;64.70;;;;;;5093471;28;20460;-66
2021/04/17 05:27:50;;;;;;;6.90;5.27;;;7.00;64.80;;;;;;5093524;28;20947;-66
2021/04/17 05:30:18;;;;;;;6.43;5.67;;;7.00;64.90;;;;;;5093169;28;20480;-66
2021/04/17 05:32:44;;;;;;;6.57;5.53;;;7.00;65.10;;;;;;5093772;28;20452;-66
2021/04/17 05:35:11;;;;;;;6.87;5.70;;;7.00;65.40;;;;;;5093640;28;20464;-66
2021/04/17 05:37:37;;;;;;;7.20;5.57;;;7.00;65.40;;;;;;5093692;28;20469;-66
2021/04/17 05:40:05;;;;;;;9.40;4.90;;;7.00;65.40;;;;;;5093628;28;20498;-66
2021/04/17 05:42:32;;;;;;;8.90;5.20;;;7.10;65.70;;;;;;5093447;28;20448;-66
2021/04/17 05:44:58;;;;;;;7.63;4.93;;;7.10;65.70;;;;;;5093141;28;20443;-66
2021/04/17 05:47:24;;;;;;;6.90;5.10;;;7.10;65.80;;;;;;5094439;28;20780;-66
2021/04/17 05:49:51;;;;;;;6.77;5.37;;;7.20;65.90;;;;;;5093417;28;20808;-66
2021/04/17 05:52:17;;;;;;;7.17;5.17;;;7.20;66.10;;;;;;5093188;28;20479;-66
2021/04/17 05:54:43;;;;;;;10.80;5.67;;;7.20;66.30;;;;;;5093228;28;20959;-66
2021/04/17 05:57:09;;;;;;;7.93;6.13;;;7.20;66.30;;;;;;5092932;28;20483;-66
2021/04/17 05:59:36;;;;;;;8.60;5.20;;;7.20;66.40;;;;;;5093299;28;20497;-66
2021/04/17 06:02:03;;;;;;;6.63;5.20;;;7.30;66.30;;;;;;5093245;28;20450;-66
2021/04/17 06:04:29;;;;;;;7.07;5.83;;;7.30;66.30;;;;;;5093058;28;20448;-66
2021/04/17 06:06:55;;;;;;;7.40;4.87;;;7.40;66.30;;;;;;5093372;28;20464;-66
2021/04/17 06:09:21;;;;;;;8.00;6.77;;;7.40;66.20;;;;;;5093769;28;20457;-67
2021/04/17 06:11:48;;;;;;;10.47;5.73;;;7.40;66.20;;;;;;5092977;28;20479;-67
2021/04/17 06:14:14;;;;;;;10.50;6.00;;;7.40;66.40;;;;;;5093090;28;20455;-67
2021/04/17 06:16:41;;;;;;;7.43;5.80;;;7.50;67.50;;;;;;5092906;28;20475;-67
2021/04/17 06:19:07;;;;;;;8.40;5.93;;;7.60;67.00;;;;;;5093163;28;20447;-68
2021/04/17 06:21:34;;;;;;;9.00;5.83;;;7.60;67.10;;;;;;5093320;28;20439;-68
2021/04/17 06:24:00;;;;;;;8.00;6.27;;;7.60;67.00;;;;;;5093211;28;20442;-68
2021/04/17 06:26:27;;;;;;;7.37;6.00;;;7.70;67.10;;;;;;5093068;28;20885;-68
2021/04/17 06:28:53;;;;;;;8.33;6.70;;;7.80;67.10;;;;;;5093151;28;20440;-68
2021/04/17 06:31:19;;;;;;;11.07;6.80;;;7.80;66.90;;;;;;5093170;28;20506;-68
2021/04/17 06:33:46;;;;;;;9.10;7.33;;;7.90;67.10;;;;;;5093175;28;20443;-68
2021/04/17 06:36:13;;;;;;;14.07;7.00;;;8.00;66.80;;;;;;5092836;28;20490;-68
2021/04/17 06:38:39;;;;;;;10.30;7.50;;;8.00;66.70;;;;;;5093130;28;20444;-68
2021/04/17 06:41:06;;;;;;;8.83;6.33;;;8.10;66.80;;;;;;5094376;28;20428;-68
2021/04/17 06:43:35;;;;;;;10.60;6.63;;;8.20;66.60;;;;;;5097505;28;20436;-68
2021/04/17 06:46:02;;;;;;;8.60;6.07;;;8.30;66.60;;;;;;5096414;28;20988;-68
2021/04/17 06:48:30;;;;;;;14.50;6.90;;;8.40;66.60;;;;;;5096805;28;20447;-68
2021/04/17 06:50:57;;;;;;;7.53;6.23;;;8.50;66.00;;;;;;5096551;28;20480;-68
2021/04/17 06:53:23;;;;;;;9.17;6.40;;;8.60;65.40;;;;;;5096352;28;20449;-68
2021/04/17 06:55:52;;;;;;;7.70;6.60;;;8.70;64.70;;;;;;5096251;28;20472;-68
2021/04/17 06:58:19;;;;;;;9.53;6.60;;;8.80;64.10;;;;;;5096590;28;20436;-68
2021/04/17 07:00:45;;;;;;;11.80;6.50;;;9.00;64.10;;;;;;5096603;28;20823;-68
2021/04/17 07:03:12;;;;;;;9.27;7.03;;;9.10;63.80;;;;;;5096548;28;20813;-68
2021/04/17 07:05:38;;;;;;;8.13;6.43;;;9.20;63.30;;;;;;5096420;28;20467;-68
2021/04/17 07:08:05;;;;;;;8.93;6.23;;;9.30;62.90;;;;;;5096453;28;20451;-68
2021/04/17 07:10:32;;;;;;;10.87;6.13;;;9.40;62.40;;;;;;5096210;28;20483;-69
2021/04/17 07:13:08;;;;;;;8.77;6.30;;;9.60;62.20;;;;;;5095986;28;20447;-69
2021/04/17 07:15:35;;;;;;;11.00;6.37;;;9.70;61.40;;;;;;5095937;28;20972;-69
2021/04/17 07:18:32;;;;;;;7.37;5.40;;;9.80;61.20;;;;;;5096140;28;20447;-69
2021/04/17 07:21:01;;;;;;;11.03;7.33;;;9.90;61.90;;;;;;5096134;28;20511;-69
2021/04/17 07:23:40;;;;;;;8.90;6.47;;;10.10;59.00;;;;;;5096048;28;20466;-69
2021/04/17 07:26:11;;;;;;;9.93;6.77;;;10.20;58.80;;;;;;5095982;28;20474;-68
2021/04/17 07:28:39;;;;;;;9.37;7.73;;;10.40;58.50;;;;;;5095671;28;20849;-69
2021/04/17 07:31:07;;;;;;;6.90;5.67;;;10.50;58.10;;;;;;5095334;28;20463;-69
2021/04/17 07:33:33;;;;;;;8.57;6.80;;;10.60;57.80;;;;;;5095778;28;20541;-68
2021/04/17 07:36:00;;;;;;;9.93;7.23;;;10.70;57.40;;;;;;5095823;28;20558;-68
2021/04/17 07:38:33;;;;;;;8.70;6.27;;;10.80;56.90;;;;;;5095885;28;20474;-68
2021/04/17 07:41:06;;;;;;;10.13;7.17;;;10.90;56.90;;;;;;5095796;28;20427;-68
2021/04/17 07:43:52;;;;;;;13.67;6.97;;;11.00;56.80;;;;;;5095685;28;20428;-69
2021/04/17 07:46:22;;;;;;;9.40;6.10;;;11.20;56.60;;;;;;5095555;28;20517;-68
2021/04/17 07:48:49;;;;;;;15.07;7.07;;;11.40;56.10;;;;;;5095636;28;20432;-68
2021/04/17 07:51:15;;;;;;;11.23;7.50;;;11.60;55.50;;;;;;5095499;28;20479;-68
2021/04/17 07:53:43;;;;;;;9.07;6.40;;;11.80;55.00;;;;;;5094967;28;20455;-68
2021/04/17 07:56:29;;;;;;;8.70;6.10;;;11.90;54.70;;;;;;5095103;28;20483;-68
2021/04/17 07:58:57;;;;;;;10.70;6.27;;;12.10;54.20;;;;;;5095478;28;20438;-68
2021/04/17 08:01:26;;;;;;;8.33;6.10;;;12.40;54.00;;;;;;5095433;28;20424;-68
2021/04/17 08:03:54;;;;;;;8.70;6.40;;;12.60;53.60;;;;;;5095353;28;20440;-68
2021/04/17 08:06:21;;;;;;;8.20;6.50;;;12.80;52.70;;;;;;5095178;28;20916;-68
2021/04/17 08:08:49;;;;;;;8.93;6.60;;;13.00;51.80;;;;;;5095249;28;20439;-68
2021/04/17 08:11:18;;;;;;;10.10;7.80;;;13.20;51.70;;;;;;5095126;28;20479;-68
2021/04/17 08:13:45;;;;;;;12.40;8.10;;;13.40;51.50;;;;;;5095235;28;20470;-69
2021/04/17 08:16:12;;;;;;;5.10;4.27;;;13.50;50.60;;;;;;5095011;28;20517;-67
2021/04/17 08:18:39;;;;;;;12.73;8.30;;;13.60;50.30;;;;;;5095020;28;20561;-68
2021/04/17 08:21:06;;;;;;;16.20;9.70;;;13.70;50.10;;;;;;5094647;28;20923;-67
2021/04/17 08:23:33;;;;;;;14.47;9.20;;;13.90;50.20;;;;;;5095016;28;20500;-67
2021/04/17 08:26:00;;;;;;;13.30;8.43;;;13.90;50.10;;;;;;5094540;28;20976;-68
2021/04/17 08:28:27;;;;;;;15.50;9.33;;;13.90;49.90;;;;;;5094871;28;20777;-68
2021/04/17 08:31:23;;;;;;;10.77;8.00;;;13.90;49.70;;;;;;5094852;28;20464;-68
2021/04/17 08:34:20;;;;;;;9.93;7.40;;;13.80;50.00;;;;;;5094718;28;20447;-68
2021/04/17 08:36:48;;;;;;;10.67;7.87;;;13.90;49.80;;;;;;5012404;28;20472;-68
2021/04/17 08:39:40;;;;;;;10.47;7.90;;;13.90;49.40;;;;;;5076929;28;20513;-68
2021/04/17 08:42:08;;;;;;;9.80;7.60;;;14.10;49.20;;;;;;5095240;28;20416;-69
2021/04/17 08:44:36;;;;;;;10.30;8.10;;;14.20;48.80;;;;;;5094595;28;20792;-69
2021/04/17 08:47:05;;;;;;;10.83;5.87;;;14.10;47.40;;;;;;5094482;28;20809;-69
2021/04/17 08:49:34;;;;;;;9.97;5.80;;;14.20;48.70;;;;;;5094485;28;20436;-68
2021/04/17 08:52:20;;;;;;;9.57;4.90;;;14.40;47.60;;;;;;5094373;28;20472;-68
2021/04/17 08:54:47;;;;;;;7.50;5.53;;;14.40;46.50;;;;;;5094283;28;20799;-68
2021/04/17 08:57:15;;;;;;;8.90;5.50;;;14.50;45.90;;;;;;5094816;28;20460;-68
2021/04/17 08:59:42;;;;;;;7.13;5.10;;;14.70;44.70;;;;;;5094302;28;20435;-68
2021/04/17 09:02:11;;;;;;;7.33;4.73;;;14.90;45.00;;;;;;5094218;28;20444;-68
2021/04/17 09:05:03;;;;;;;6.10;5.30;;;15.10;45.10;;;;;;5093409;28;20452;-68
2021/04/17 09:07:31;;;;;;;5.90;5.13;;;15.40;44.30;;;;;;5094306;28;20428;-68
2021/04/17 09:10:34;;;;;;;8.10;4.33;;;15.60;45.20;;;;;;5094176;28;20485;-68
2021/04/17 09:13:31;;;;;;;5.60;4.60;;;15.80;44.20;;;;;;5094858;28;20822;-68
2021/04/17 09:15:58;;;;;;;11.93;5.17;;;15.80;43.80;;;;;;5087485;28;20464;-68
2021/04/17 09:18:42;;;;;;;6.57;5.00;;;15.90;43.10;;;;;;5094032;28;20485;-69
2021/04/17 09:21:31;;;;;;;7.93;5.17;;;16.00;41.70;;;;;;5093973;28;20453;-69
2021/04/17 09:23:58;;;;;;;6.37;4.90;;;16.10;42.60;;;;;;5093932;28;20432;-69
2021/04/17 09:26:36;;;;;;;7.90;5.73;;;16.30;43.10;;;;;;5093784;28;20467;-69
2021/04/17 09:29:05;;;;;;;6.23;5.17;;;16.40;40.90;;;;;;5093572;28;20869;-68
2021/04/17 09:31:35;;;;;;;7.43;5.13;;;16.40;42.80;;;;;;5093757;28;20479;-68
2021/04/17 09:34:04;;;;;;;8.33;5.20;;;16.40;41.70;;;;;;5094020;28;20436;-68
2021/04/17 09:36:31;;;;;;;6.30;4.70;;;16.60;42.60;;;;;;5093638;28;20474;-68
2021/04/17 09:38:57;;;;;;;5.70;4.30;;;16.70;42.00;;;;;;5093418;28;20524;-69
2021/04/17 09:41:23;;;;;;;5.10;4.40;;;17.00;40.10;;;;;;5093619;28;20440;-69
2021/04/17 09:43:56;;;;;;;6.63;4.43;;;17.10;40.50;;;;;;5093662;28;20787;-69
2021/04/17 09:46:23;;;;;;;5.77;4.47;;;17.30;40.80;;;;;;5093666;28;20468;-69
2021/04/17 09:48:50;;;;;;;7.77;4.10;;;17.60;40.20;;;;;;5093636;28;20444;-69
2021/04/17 09:51:21;;;;;;;6.13;3.80;;;17.70;38.70;;;;;;5093487;28;20480;-69
2021/04/17 09:53:48;;;;;;;4.53;4.13;;;18.00;38.50;;;;;;5093894;28;20444;-69
2021/04/17 09:56:26;;;;;;;9.60;4.57;;;18.30;37.80;;;;;;5093147;28;20854;-69
2021/04/17 09:58:53;;;;;;;5.83;3.80;;;18.60;37.60;;;;;;5093530;28;20432;-69
2021/04/17 10:01:20;;;;;;;7.87;4.00;;;18.80;37.20;;;;;;5093448;28;20443;-69
2021/04/17 10:03:52;;;;;;;6.53;3.90;;;19.10;36.90;;;;;;5093416;28;20454;-68
2021/04/17 10:06:28;;;;;;;8.37;3.63;;;19.20;35.70;;;;;;5093354;28;20832;-69
2021/04/17 10:08:55;;;;;;;7.07;4.57;;;19.40;35.30;;;;;;5093416;28;20443;-69
2021/04/17 10:11:25;;;;;;;4.27;3.87;;;19.80;35.40;;;;;;5093356;28;20476;-69
2021/04/17 10:13:51;;;;;;;7.13;3.77;;;20.20;34.70;;;;;;5093400;28;20472;-69
2021/04/17 10:16:25;;;;;;;7.47;4.47;;;20.60;33.30;;;;;;5094937;28;20470;-69
2021/04/17 10:18:52;;;;;;;4.43;3.87;;;20.80;31.70;;;;;;5097136;28;20798;-69
2021/04/17 10:21:24;;;;;;;5.20;3.67;;;21.00;31.60;;;;;;5097332;28;20431;-69
2021/04/17 10:24:19;;;;;;;5.93;3.43;;;21.20;31.80;;;;;;5097389;28;20428;-69
2021/04/17 10:26:50;;;;;;;6.30;3.23;;;21.70;29.90;;;;;;5098309;28;20451;-69
2021/04/17 10:29:16;;;;;;;3.50;3.20;;;21.80;28.80;;;;;;5097174;28;20808;-69
2021/04/17 10:31:43;;;;;;;6.27;3.63;;;22.20;28.30;;;;;;5097114;28;20529;-69
2021/04/17 10:34:09;;;;;;;5.00;3.57;;;22.60;27.40;;;;;;5097129;28;20538;-69
2021/04/17 10:36:35;;;;;;;4.70;3.40;;;22.90;27.30;;;;;;5097079;28;20456;-69
2021/04/17 10:39:07;;;;;;;5.63;3.67;;;23.10;26.90;;;;;;5097256;28;20477;-70
2021/04/17 10:41:35;;;;;;;4.97;3.47;;;23.40;27.70;;;;;;5097073;28;20434;-70
2021/04/17 10:44:09;;;;;;;3.40;3.10;;;23.80;27.20;;;;;;5097144;28;20853;-70
2021/04/17 10:46:43;;;;;;;9.83;4.83;;;23.80;26.60;;;;;;5096944;28;20463;-70
2021/04/17 10:49:09;;;;;;;6.07;3.90;;;23.70;26.30;;;;;;5096825;28;20446;-71
2021/04/17 10:51:37;;;;;;;8.37;3.67;;;23.40;26.20;;;;;;5096814;28;20482;-71
2021/04/17 10:54:04;;;;;;;4.40;2.87;;;23.10;27.40;;;;;;5096794;28;20838;-71
2021/04/17 10:56:31;;;;;;;3.73;3.30;;;22.90;27.60;;;;;;5096352;28;20529;-71
2021/04/17 10:59:00;;;;;;;4.10;3.70;;;23.00;27.30;;;;;;5097581;28;20511;-72
2021/04/17 11:01:27;;;;;;;4.40;3.53;;;23.30;27.00;;;;;;5096689;28;20807;-70
2021/04/17 11:03:58;;;;;;;6.27;3.73;;;23.70;26.20;;;;;;5096550;28;20448;-70
2021/04/17 11:06:26;;;;;;;4.20;3.70;;;23.70;25.80;;;;;;5096537;28;20471;-69
2021/04/17 11:09:06;;;;;;;6.80;4.50;;;23.60;26.30;;;;;;5096559;28;20444;-69
2021/04/17 11:11:33;;;;;;;7.77;4.50;;;23.20;26.20;;;;;;5096116;28;21043;-69
2021/04/17 11:14:01;;;;;;;9.23;4.00;;;22.80;26.20;;;;;;5096442;28;20450;-69
2021/04/17 11:16:36;;;;;;;6.53;3.87;;;22.40;27.00;;;;;;5096276;28;20890;-69
2021/04/17 11:19:02;;;;;;;5.37;3.90;;;22.00;28.20;;;;;;5096235;28;20834;-69
2021/04/17 11:21:29;;;;;;;5.10;3.70;;;21.70;27.70;;;;;;5096237;28;20447;-69
2021/04/17 11:23:57;;;;;;;7.70;4.43;;;21.30;28.20;;;;;;5095839;28;20945;-70
2021/04/17 11:26:25;;;;;;;4.43;3.57;;;21.00;29.50;;;;;;5095749;28;20496;-70
2021/04/17 11:28:53;;;;;;;8.83;4.83;;;20.90;30.30;;;;;;5095262;28;20997;-69
2021/04/17 11:31:22;;;;;;;6.20;4.37;;;20.60;30.10;;;;;;5096096;28;20525;-69
2021/04/17 11:33:51;;;;;;;5.23;3.73;;;20.30;30.00;;;;;;5096016;28;20424;-69
2021/04/17 11:36:18;;;;;;;6.03;4.90;;;20.00;31.20;;;;;;5095684;28;20463;-69
2021/04/17 11:38:44;;;;;;;5.40;4.60;;;20.00;31.10;;;;;;5095746;28;20432;-68
2021/04/17 11:41:10;;;;;;;5.40;4.90;;;19.90;30.30;;;;;;5096135;28;20494;-68
2021/04/17 11:43:37;;;;;;;6.20;5.03;;;19.90;30.70;;;;;;5095989;28;20813;-69
2021/04/17 11:46:03;;;;;;;7.30;5.40;;;19.80;31.20;;;;;;5095475;28;20810;-68
2021/04/17 11:48:30;;;;;;;7.10;6.50;;;19.80;31.80;;;;;;5095652;28;20493;-68
2021/04/17 11:50:57;;;;;;;9.03;7.50;;;19.70;31.60;;;;;;5095316;28;20470;-68
2021/04/17 11:53:24;;;;;;;9.00;8.13;;;19.90;31.50;;;;;;5095596;28;20497;-68
2021/04/17 11:55:52;;;;;;;10.07;8.67;;;20.10;31.80;;;;;;5095200;28;20471;-68
2021/04/17 11:58:19;;;;;;;13.13;8.33;;;20.10;31.40;;;;;;5095185;28;20487;-68
2021/04/17 12:00:45;;;;;;;7.07;6.47;;;20.10;31.10;;;;;;5095068;28;20435;-68
2021/04/17 12:03:15;;;;;;;6.33;5.80;;;20.30;31.30;;;;;;5095446;28;20452;-68
2021/04/17 12:05:42;;;;;;;8.27;6.40;;;20.70;31.40;;;;;;5095288;28;20468;-68
2021/04/17 12:08:08;;;;;;;12.20;6.90;;;20.90;30.00;;;;;;5095360;28;20436;-69
2021/04/17 12:10:34;;;;;;;6.20;5.60;;;20.90;30.00;;;;;;5095823;28;20432;-69
2021/04/17 12:13:01;;;;;;;8.33;5.50;;;21.20;30.30;;;;;;5095376;28;20862;-68
2021/04/17 12:15:27;;;;;;;6.30;5.13;;;21.70;30.20;;;;;;5095086;28;20520;-68
2021/04/17 12:17:53;;;;;;;6.00;4.47;;;22.20;29.60;;;;;;5095102;28;20440;-68
2021/04/17 12:20:19;;;;;;;6.40;5.30;;;22.10;28.20;;;;;;5094851;28;20963;-69
2021/04/17 12:22:47;;;;;;;6.80;5.10;;;21.60;29.10;;;;;;5094884;28;20440;-69
2021/04/17 12:25:13;;;;;;;9.07;6.23;;;21.40;29.80;;;;;;5095029;28;20475;-68
2021/04/17 12:27:40;;;;;;;7.27;5.17;;;21.10;30.00;;;;;;5095144;28;20467;-68
2021/04/17 12:30:09;;;;;;;6.70;6.10;;;20.80;30.20;;;;;;5094920;28;20444;-68
2021/04/17 12:32:35;;;;;;;7.90;7.10;;;20.60;30.40;;;;;;5094884;28;20482;-68
2021/04/17 12:35:02;;;;;;;7.97;7.17;;;20.50;30.50;;;;;;5094643;28;20451;-68
2021/04/17 12:37:28;;;;;;;8.30;7.50;;;20.40;30.20;;;;;;5094848;28;20444;-68
2021/04/17 12:39:55;;;;;;;8.10;6.90;;;20.50;30.90;;;;;;5094681;28;20542;-69
2021/04/17 12:42:21;;;;;;;6.87;6.17;;;20.50;30.30;;;;;;5094759;28;20511;-69
2021/04/17 12:44:48;;;;;;;7.20;6.10;;;20.20;30.80;;;;;;5094610;28;20521;-69
2021/04/17 12:47:14;;;;;;;7.90;7.10;;;20.10;30.90;;;;;;5094277;28;20467;-69
2021/04/17 12:49:41;;;;;;;8.53;6.53;;;19.80;30.90;;;;;;5094529;28;20501;-69
2021/04/17 12:52:07;;;;;;;8.77;5.40;;;19.50;31.50;;;;;;5094357;28;20475;-68
2021/04/17 12:54:34;;;;;;;8.73;5.70;;;19.30;32.40;;;;;;5094308;28;20444;-68
2021/04/17 12:57:01;;;;;;;6.50;5.03;;;19.10;32.80;;;;;;5093932;28;20483;-68